sensor_id;sensor_type;location;lat;lon;timestamp;temperature;humidity
74940;HTU21D;63505;45.226;37.908;2023-09-18T10:30:42;27.40;35.75
74940;HTU21D;63505;45.226;37.908;2023-09-18T10:33:09;27.54;35.73
74940;HTU21D;63505;45.226;37.908;2023-09-18T10:35:35;27.60;35.62
74940;HTU21D;63505;45.226;37.908;2023-09-18T10:38:02;27.60;35.49
74940;HTU21D;63505;45.226;37.908;2023-09-18T10:40:31;27.68;35.51
74940;HTU21D;63505;45.226;37.908;2023-09-18T10:43:02;27.55;35.79
74940;HTU21D;63505;45.226;37.908;2023-09-18T10:45:30;27.50;35.47
74940;HTU21D;63505;45.226;37.908;2023-09-18T10:47:57;27.43;35.31
74940;HTU21D;63505;45.226;37.908;2023-09-18T10:50:25;27.42;35.64
74940;HTU21D;63505;45.226;37.908;2023-09-18T10:52:52;27.42;35.26
74940;HTU21D;63505;45.226;37.908;2023-09-18T10:55:18;27.40;34.88
74940;HTU21D;63505;45.226;37.908;2023-09-18T11:00:18;27.38;34.45
74940;HTU21D;63505;45.226;37.908;2023-09-18T11:03:11;27.44;34.50
74940;HTU21D;63505;45.226;37.908;2023-09-18T11:05:38;27.43;33.85
74940;HTU21D;63505;45.226;37.908;2023-09-18T11:08:29;27.30;34.10
74940;HTU21D;63505;45.226;37.908;2023-09-18T11:10:58;27.26;33.76
74940;HTU21D;63505;45.226;37.908;2023-09-18T11:13:41;27.22;33.72
74940;HTU21D;63505;45.226;37.908;2023-09-18T11:19:05;27.37;33.97
74940;HTU21D;63505;45.226;37.908;2023-09-18T11:21:34;27.35;34.03
74940;HTU21D;63505;45.226;37.908;2023-09-18T11:24:07;27.32;34.14
74940;HTU21D;63505;45.226;37.908;2023-09-18T11:26:40;27.31;33.82
74940;HTU21D;63505;45.226;37.908;2023-09-18T11:29:11;27.25;33.73
74940;HTU21D;63505;45.226;37.908;2023-09-18T11:31:48;27.21;34.19
74940;HTU21D;63505;45.226;37.908;2023-09-18T11:36:48;27.27;34.13
74940;HTU21D;63505;45.226;37.908;2023-09-18T11:39:36;27.19;34.12
74940;HTU21D;63505;45.226;37.908;2023-09-18T11:42:29;27.14;34.00
74940;HTU21D;63505;45.226;37.908;2023-09-18T11:44:56;27.21;34.17
74940;HTU21D;63505;45.226;37.908;2023-09-18T11:47:25;27.28;34.05
74940;HTU21D;63505;45.226;37.908;2023-09-18T11:49:56;27.26;34.33
74940;HTU21D;63505;45.226;37.908;2023-09-18T11:52:25;27.26;34.59
74940;HTU21D;63505;45.226;37.908;2023-09-18T11:54:52;27.25;34.60
74940;HTU21D;63505;45.226;37.908;2023-09-18T11:57:19;27.30;34.63
74940;HTU21D;63505;45.226;37.908;2023-09-18T11:59:47;27.32;34.63
74940;HTU21D;63505;45.226;37.908;2023-09-18T12:02:25;27.38;34.06
74940;HTU21D;63505;45.226;37.908;2023-09-18T12:04:54;27.27;33.95
74940;HTU21D;63505;45.226;37.908;2023-09-18T12:07:20;27.24;34.19
74940;HTU21D;63505;45.226;37.908;2023-09-18T12:09:46;27.31;34.25
74940;HTU21D;63505;45.226;37.908;2023-09-18T12:12:12;27.29;34.16
74940;HTU21D;63505;45.226;37.908;2023-09-18T12:14:41;27.27;34.28
74940;HTU21D;63505;45.226;37.908;2023-09-18T12:17:14;27.24;34.50
74940;HTU21D;63505;45.226;37.908;2023-09-18T12:19:54;27.22;34.69
74940;HTU21D;63505;45.226;37.908;2023-09-18T12:22:27;27.21;34.77
74940;HTU21D;63505;45.226;37.908;2023-09-18T12:24:55;27.15;34.20
74940;HTU21D;63505;45.226;37.908;2023-09-18T12:27:35;27.09;34.06
74940;HTU21D;63505;45.226;37.908;2023-09-18T12:30:02;27.01;33.82
74940;HTU21D;63505;45.226;37.908;2023-09-18T12:32:30;27.05;34.01
74940;HTU21D;63505;45.226;37.908;2023-09-18T12:34:58;27.07;34.15
74940;HTU21D;63505;45.226;37.908;2023-09-18T12:37:25;27.07;34.20
74940;HTU21D;63505;45.226;37.908;2023-09-18T12:39:50;27.08;34.29
74940;HTU21D;63505;45.226;37.908;2023-09-18T12:42:19;27.06;34.46
74940;HTU21D;63505;45.226;37.908;2023-09-18T12:44:49;27.07;34.58
74940;HTU21D;63505;45.226;37.908;2023-09-18T12:47:15;27.04;34.23
74940;HTU21D;63505;45.226;37.908;2023-09-18T12:49:41;26.94;34.50
74940;HTU21D;63505;45.226;37.908;2023-09-18T12:52:07;26.94;34.66
74940;HTU21D;63505;45.226;37.908;2023-09-18T12:54:41;26.97;34.85
74940;HTU21D;63505;45.226;37.908;2023-09-18T12:57:08;26.98;34.92
74940;HTU21D;63505;45.226;37.908;2023-09-18T12:59:35;26.96;34.93
74940;HTU21D;63505;45.226;37.908;2023-09-18T13:02:02;26.95;35.07
74940;HTU21D;63505;45.226;37.908;2023-09-18T13:04:39;26.90;34.93
74940;HTU21D;63505;45.226;37.908;2023-09-18T13:07:13;26.87;34.74
74940;HTU21D;63505;45.226;37.908;2023-09-18T13:09:39;26.86;34.74
74940;HTU21D;63505;45.226;37.908;2023-09-18T13:12:06;26.81;34.37
74940;HTU21D;63505;45.226;37.908;2023-09-18T13:14:58;26.72;34.47
74940;HTU21D;63505;45.226;37.908;2023-09-18T13:17:26;26.69;34.62
74940;HTU21D;63505;45.226;37.908;2023-09-18T13:19:52;26.66;34.72
74940;HTU21D;63505;45.226;37.908;2023-09-18T13:22:24;26.62;34.74
74940;HTU21D;63505;45.226;37.908;2023-09-18T13:24:55;26.56;34.76
74940;HTU21D;63505;45.226;37.908;2023-09-18T13:27:22;26.51;34.87
74940;HTU21D;63505;45.226;37.908;2023-09-18T13:29:49;26.51;34.92
74940;HTU21D;63505;45.226;37.908;2023-09-18T13:32:15;26.46;35.08
74940;HTU21D;63505;45.226;37.908;2023-09-18T13:34:41;26.42;35.16
74940;HTU21D;63505;45.226;37.908;2023-09-18T13:37:07;26.37;35.11
74940;HTU21D;63505;45.226;37.908;2023-09-18T13:39:33;26.31;34.93
74940;HTU21D;63505;45.226;37.908;2023-09-18T13:41:58;26.23;34.82
74940;HTU21D;63505;45.226;37.908;2023-09-18T13:44:24;26.19;34.88
74940;HTU21D;63505;45.226;37.908;2023-09-18T13:46:50;26.18;34.95
74940;HTU21D;63505;45.226;37.908;2023-09-18T13:49:16;26.11;34.97
74940;HTU21D;63505;45.226;37.908;2023-09-18T13:51:42;26.08;35.00
74940;HTU21D;63505;45.226;37.908;2023-09-18T13:54:08;26.03;34.99
74940;HTU21D;63505;45.226;37.908;2023-09-18T13:56:34;25.97;34.99
74940;HTU21D;63505;45.226;37.908;2023-09-18T13:59:00;25.92;35.02
74940;HTU21D;63505;45.226;37.908;2023-09-18T14:01:26;25.86;34.85
74940;HTU21D;63505;45.226;37.908;2023-09-18T14:03:52;25.80;34.98
74940;HTU21D;63505;45.226;37.908;2023-09-18T14:06:19;25.76;34.97
74940;HTU21D;63505;45.226;37.908;2023-09-18T14:08:47;25.69;35.11
74940;HTU21D;63505;45.226;37.908;2023-09-18T14:11:18;25.65;35.11
74940;HTU21D;63505;45.226;37.908;2023-09-18T14:14:03;25.58;35.31
74940;HTU21D;63505;45.226;37.908;2023-09-18T14:16:47;25.53;35.45
74940;HTU21D;63505;45.226;37.908;2023-09-18T14:19:34;25.49;35.47
74940;HTU21D;63505;45.226;37.908;2023-09-18T14:22:00;25.45;35.44
74940;HTU21D;63505;45.226;37.908;2023-09-18T14:24:31;25.40;35.57
74940;HTU21D;63505;45.226;37.908;2023-09-18T14:27:00;25.35;35.70
74940;HTU21D;63505;45.226;37.908;2023-09-18T14:29:26;25.30;35.77
74940;HTU21D;63505;45.226;37.908;2023-09-18T14:31:53;25.24;35.76
74940;HTU21D;63505;45.226;37.908;2023-09-18T14:34:19;25.18;35.72
74940;HTU21D;63505;45.226;37.908;2023-09-18T14:36:45;25.13;35.76
74940;HTU21D;63505;45.226;37.908;2023-09-18T14:39:11;25.07;35.82
74940;HTU21D;63505;45.226;37.908;2023-09-18T14:41:38;25.02;35.91
74940;HTU21D;63505;45.226;37.908;2023-09-18T14:44:05;24.95;36.00
74940;HTU21D;63505;45.226;37.908;2023-09-18T14:46:31;24.88;36.07
74940;HTU21D;63505;45.226;37.908;2023-09-18T14:49:00;24.79;36.10
74940;HTU21D;63505;45.226;37.908;2023-09-18T14:51:27;24.75;36.27
74940;HTU21D;63505;45.226;37.908;2023-09-18T14:53:57;24.69;36.37
74940;HTU21D;63505;45.226;37.908;2023-09-18T14:56:23;24.61;36.53
74940;HTU21D;63505;45.226;37.908;2023-09-18T14:58:49;24.55;36.59
74940;HTU21D;63505;45.226;37.908;2023-09-18T15:01:21;24.47;36.77
74940;HTU21D;63505;45.226;37.908;2023-09-18T15:03:47;24.38;36.96
74940;HTU21D;63505;45.226;37.908;2023-09-18T15:06:17;24.27;37.18
74940;HTU21D;63505;45.226;37.908;2023-09-18T15:08:43;24.14;37.40
74940;HTU21D;63505;45.226;37.908;2023-09-18T15:11:10;24.02;37.59
74940;HTU21D;63505;45.226;37.908;2023-09-18T15:13:36;23.91;37.77
74940;HTU21D;63505;45.226;37.908;2023-09-18T15:16:03;23.82;37.93
74940;HTU21D;63505;45.226;37.908;2023-09-18T15:18:29;23.72;38.07
74940;HTU21D;63505;45.226;37.908;2023-09-18T15:20:54;23.64;38.20
74940;HTU21D;63505;45.226;37.908;2023-09-18T15:23:22;23.52;38.37
74940;HTU21D;63505;45.226;37.908;2023-09-18T15:25:49;23.40;38.53
74940;HTU21D;63505;45.226;37.908;2023-09-18T15:28:16;23.28;38.72
74940;HTU21D;63505;45.226;37.908;2023-09-18T15:30:45;23.16;38.88
74940;HTU21D;63505;45.226;37.908;2023-09-18T15:33:11;23.02;39.07
74940;HTU21D;63505;45.226;37.908;2023-09-18T15:35:38;22.91;39.24
74940;HTU21D;63505;45.226;37.908;2023-09-18T15:38:04;22.79;39.39
74940;HTU21D;63505;45.226;37.908;2023-09-18T15:40:33;22.65;39.59
74940;HTU21D;63505;45.226;37.908;2023-09-18T15:42:59;22.51;39.76
74940;HTU21D;63505;45.226;37.908;2023-09-18T15:45:25;22.41;39.90
74940;HTU21D;63505;45.226;37.908;2023-09-18T15:47:51;22.28;40.04
74940;HTU21D;63505;45.226;37.908;2023-09-18T15:50:17;22.14;40.20
74940;HTU21D;63505;45.226;37.908;2023-09-18T15:52:44;22.02;40.37
74940;HTU21D;63505;45.226;37.908;2023-09-18T15:55:10;21.85;40.60
74940;HTU21D;63505;45.226;37.908;2023-09-18T15:57:38;21.75;40.75
74940;HTU21D;63505;45.226;37.908;2023-09-18T16:00:11;21.65;40.80
74940;HTU21D;63505;45.226;37.908;2023-09-18T16:02:38;21.54;40.91
74940;HTU21D;63505;45.226;37.908;2023-09-18T16:05:06;21.45;41.00
74940;HTU21D;63505;45.226;37.908;2023-09-18T16:07:33;21.34;41.13
74940;HTU21D;63505;45.226;37.908;2023-09-18T16:10:00;21.21;41.26
74940;HTU21D;63505;45.226;37.908;2023-09-18T16:12:26;21.11;41.38
74940;HTU21D;63505;45.226;37.908;2023-09-18T16:14:54;21.03;41.49
74940;HTU21D;63505;45.226;37.908;2023-09-18T16:17:21;20.93;41.58
74940;HTU21D;63505;45.226;37.908;2023-09-18T16:19:48;20.85;41.65
74940;HTU21D;63505;45.226;37.908;2023-09-18T16:22:14;20.77;41.72
74940;HTU21D;63505;45.226;37.908;2023-09-18T16:24:43;20.71;41.81
74940;HTU21D;63505;45.226;37.908;2023-09-18T16:27:12;20.61;41.91
74940;HTU21D;63505;45.226;37.908;2023-09-18T16:29:40;20.54;42.00
74940;HTU21D;63505;45.226;37.908;2023-09-18T16:32:06;20.46;42.07
74940;HTU21D;63505;45.226;37.908;2023-09-18T16:34:33;20.41;42.13
74940;HTU21D;63505;45.226;37.908;2023-09-18T16:37:00;20.33;42.22
74940;HTU21D;63505;45.226;37.908;2023-09-18T16:39:26;20.27;42.29
74940;HTU21D;63505;45.226;37.908;2023-09-18T16:41:53;20.19;42.38
74940;HTU21D;63505;45.226;37.908;2023-09-18T16:44:19;20.13;42.45
74940;HTU21D;63505;45.226;37.908;2023-09-18T16:46:45;20.06;42.52
74940;HTU21D;63505;45.226;37.908;2023-09-18T16:49:11;20.01;42.59
74940;HTU21D;63505;45.226;37.908;2023-09-18T16:51:40;19.98;42.66
74940;HTU21D;63505;45.226;37.908;2023-09-18T16:54:08;19.94;42.74
74940;HTU21D;63505;45.226;37.908;2023-09-18T16:56:33;19.91;42.79
74940;HTU21D;63505;45.226;37.908;2023-09-18T16:59:00;19.87;42.86
74940;HTU21D;63505;45.226;37.908;2023-09-18T17:01:27;19.85;42.91
74940;HTU21D;63505;45.226;37.908;2023-09-18T17:03:54;19.83;42.91
74940;HTU21D;63505;45.226;37.908;2023-09-18T17:06:20;19.80;42.98
74940;HTU21D;63505;45.226;37.908;2023-09-18T17:08:47;19.75;43.04
74940;HTU21D;63505;45.226;37.908;2023-09-18T17:11:15;19.70;43.13
74940;HTU21D;63505;45.226;37.908;2023-09-18T17:13:43;19.63;43.23
74940;HTU21D;63505;45.226;37.908;2023-09-18T17:16:09;19.58;43.32
74940;HTU21D;63505;45.226;37.908;2023-09-18T17:18:36;19.50;43.45
74940;HTU21D;63505;45.226;37.908;2023-09-18T17:21:04;19.40;43.60
74940;HTU21D;63505;45.226;37.908;2023-09-18T17:23:29;19.32;43.73
74940;HTU21D;63505;45.226;37.908;2023-09-18T17:25:55;19.25;43.86
74940;HTU21D;63505;45.226;37.908;2023-09-18T17:28:22;19.17;43.97
74940;HTU21D;63505;45.226;37.908;2023-09-18T17:30:47;19.07;44.13
74940;HTU21D;63505;45.226;37.908;2023-09-18T17:33:16;19.00;44.27
74940;HTU21D;63505;45.226;37.908;2023-09-18T17:35:42;18.94;44.35
74940;HTU21D;63505;45.226;37.908;2023-09-18T17:38:14;18.87;44.45
74940;HTU21D;63505;45.226;37.908;2023-09-18T17:40:40;18.81;44.54
74940;HTU21D;63505;45.226;37.908;2023-09-18T17:43:06;18.77;44.62
74940;HTU21D;63505;45.226;37.908;2023-09-18T17:45:33;18.71;44.69
74940;HTU21D;63505;45.226;37.908;2023-09-18T17:48:02;18.72;44.71
74940;HTU21D;63505;45.226;37.908;2023-09-18T17:50:32;18.77;44.65
74940;HTU21D;63505;45.226;37.908;2023-09-18T17:52:59;18.68;44.79
74940;HTU21D;63505;45.226;37.908;2023-09-18T17:55:25;18.55;45.05
74940;HTU21D;63505;45.226;37.908;2023-09-18T17:57:51;18.47;45.19
74940;HTU21D;63505;45.226;37.908;2023-09-18T18:00:17;18.43;45.20
74940;HTU21D;63505;45.226;37.908;2023-09-18T18:02:43;18.36;45.34
74940;HTU21D;63505;45.226;37.908;2023-09-18T18:05:10;18.27;45.46
74940;HTU21D;63505;45.226;37.908;2023-09-18T18:07:37;18.22;45.53
74940;HTU21D;63505;45.226;37.908;2023-09-18T18:10:06;18.20;45.53
74940;HTU21D;63505;45.226;37.908;2023-09-18T18:12:38;18.17;45.54
74940;HTU21D;63505;45.226;37.908;2023-09-18T18:15:05;18.14;45.56
74940;HTU21D;63505;45.226;37.908;2023-09-18T18:17:34;18.11;45.57
74940;HTU21D;63505;45.226;37.908;2023-09-18T18:20:00;18.06;45.64
74940;HTU21D;63505;45.226;37.908;2023-09-18T18:22:32;18.02;45.73
74940;HTU21D;63505;45.226;37.908;2023-09-18T18:24:58;17.95;45.86
74940;HTU21D;63505;45.226;37.908;2023-09-18T18:27:24;17.87;46.01
74940;HTU21D;63505;45.226;37.908;2023-09-18T18:29:50;17.83;46.03
74940;HTU21D;63505;45.226;37.908;2023-09-18T18:32:16;17.77;46.13
74940;HTU21D;63505;45.226;37.908;2023-09-18T18:34:42;17.68;46.31
74940;HTU21D;63505;45.226;37.908;2023-09-18T18:37:10;17.61;46.41
74940;HTU21D;63505;45.226;37.908;2023-09-18T18:39:36;17.55;46.47
74940;HTU21D;63505;45.226;37.908;2023-09-18T18:42:05;17.52;46.51
74940;HTU21D;63505;45.226;37.908;2023-09-18T18:44:31;17.50;46.55
74940;HTU21D;63505;45.226;37.908;2023-09-18T18:46:57;17.50;46.58
74940;HTU21D;63505;45.226;37.908;2023-09-18T18:49:23;17.50;46.60
74940;HTU21D;63505;45.226;37.908;2023-09-18T18:51:49;17.49;46.61
74940;HTU21D;63505;45.226;37.908;2023-09-18T18:54:15;17.48;46.67
74940;HTU21D;63505;45.226;37.908;2023-09-18T18:56:41;17.46;46.69
74940;HTU21D;63505;45.226;37.908;2023-09-18T18:59:09;17.45;46.78
74940;HTU21D;63505;45.226;37.908;2023-09-18T19:01:35;17.43;46.84
74940;HTU21D;63505;45.226;37.908;2023-09-18T19:04:02;17.43;46.89
74940;HTU21D;63505;45.226;37.908;2023-09-18T19:06:28;17.40;46.95
74940;HTU21D;63505;45.226;37.908;2023-09-18T19:08:54;17.41;46.96
74940;HTU21D;63505;45.226;37.908;2023-09-18T19:11:22;17.43;47.01
74940;HTU21D;63505;45.226;37.908;2023-09-18T19:13:48;17.39;47.09
74940;HTU21D;63505;45.226;37.908;2023-09-18T19:16:16;17.41;47.09
74940;HTU21D;63505;45.226;37.908;2023-09-18T19:18:42;17.43;47.10
74940;HTU21D;63505;45.226;37.908;2023-09-18T19:21:08;17.41;47.13
74940;HTU21D;63505;45.226;37.908;2023-09-18T19:23:36;17.39;47.18
74940;HTU21D;63505;45.226;37.908;2023-09-18T19:26:04;17.38;47.22
74940;HTU21D;63505;45.226;37.908;2023-09-18T19:28:31;17.38;47.27
74940;HTU21D;63505;45.226;37.908;2023-09-18T19:30:58;17.35;47.38
74940;HTU21D;63505;45.226;37.908;2023-09-18T19:33:25;17.32;47.49
74940;HTU21D;63505;45.226;37.908;2023-09-18T19:35:57;17.26;47.64
74940;HTU21D;63505;45.226;37.908;2023-09-18T19:38:24;17.21;47.79
74940;HTU21D;63505;45.226;37.908;2023-09-18T19:40:51;17.17;47.96
74940;HTU21D;63505;45.226;37.908;2023-09-18T19:43:18;17.13;48.06
74940;HTU21D;63505;45.226;37.908;2023-09-18T19:45:44;17.09;48.19
74940;HTU21D;63505;45.226;37.908;2023-09-18T19:48:10;17.06;48.26
74940;HTU21D;63505;45.226;37.908;2023-09-18T19:50:36;17.04;48.37
74940;HTU21D;63505;45.226;37.908;2023-09-18T19:53:02;17.03;48.44
74940;HTU21D;63505;45.226;37.908;2023-09-18T19:55:28;17.01;48.48
74940;HTU21D;63505;45.226;37.908;2023-09-18T19:57:58;16.99;48.56
74940;HTU21D;63505;45.226;37.908;2023-09-18T20:00:25;16.96;48.61
74940;HTU21D;63505;45.226;37.908;2023-09-18T20:02:51;16.94;48.66
74940;HTU21D;63505;45.226;37.908;2023-09-18T20:05:18;16.93;48.70
74940;HTU21D;63505;45.226;37.908;2023-09-18T20:07:44;16.90;48.75
74940;HTU21D;63505;45.226;37.908;2023-09-18T20:10:12;16.90;48.79
74940;HTU21D;63505;45.226;37.908;2023-09-18T20:12:50;16.87;48.83
74940;HTU21D;63505;45.226;37.908;2023-09-18T20:15:17;16.86;48.90
74940;HTU21D;63505;45.226;37.908;2023-09-18T20:17:44;16.82;48.98
74940;HTU21D;63505;45.226;37.908;2023-09-18T20:20:13;16.82;49.02
74940;HTU21D;63505;45.226;37.908;2023-09-18T20:22:39;16.80;49.08
74940;HTU21D;63505;45.226;37.908;2023-09-18T20:25:06;16.79;49.20
74940;HTU21D;63505;45.226;37.908;2023-09-18T20:27:38;16.81;49.25
74940;HTU21D;63505;45.226;37.908;2023-09-18T20:30:14;16.80;49.32
74940;HTU21D;63505;45.226;37.908;2023-09-18T20:32:41;16.78;49.38
74940;HTU21D;63505;45.226;37.908;2023-09-18T20:35:08;16.76;49.50
74940;HTU21D;63505;45.226;37.908;2023-09-18T20:37:36;16.73;49.56
74940;HTU21D;63505;45.226;37.908;2023-09-18T20:40:03;16.69;49.63
74940;HTU21D;63505;45.226;37.908;2023-09-18T20:42:29;16.63;49.76
74940;HTU21D;63505;45.226;37.908;2023-09-18T20:44:55;16.57;49.85
74940;HTU21D;63505;45.226;37.908;2023-09-18T20:47:21;16.54;49.97
74940;HTU21D;63505;45.226;37.908;2023-09-18T20:49:53;16.46;50.05
74940;HTU21D;63505;45.226;37.908;2023-09-18T20:52:19;16.43;50.11
74940;HTU21D;63505;45.226;37.908;2023-09-18T20:54:44;16.36;50.20
74940;HTU21D;63505;45.226;37.908;2023-09-18T20:57:11;16.34;50.24
74940;HTU21D;63505;45.226;37.908;2023-09-18T20:59:38;16.32;50.26
74940;HTU21D;63505;45.226;37.908;2023-09-18T21:02:04;16.32;50.27
74940;HTU21D;63505;45.226;37.908;2023-09-18T21:04:32;16.27;50.33
74940;HTU21D;63505;45.226;37.908;2023-09-18T21:07:00;16.22;50.39
74940;HTU21D;63505;45.226;37.908;2023-09-18T21:09:26;16.19;50.43
74940;HTU21D;63505;45.226;37.908;2023-09-18T21:11:53;16.16;50.47
74940;HTU21D;63505;45.226;37.908;2023-09-18T21:14:19;16.13;50.48
74940;HTU21D;63505;45.226;37.908;2023-09-18T21:16:45;16.12;50.49
74940;HTU21D;63505;45.226;37.908;2023-09-18T21:19:12;16.07;50.52
74940;HTU21D;63505;45.226;37.908;2023-09-18T21:21:38;16.07;50.51
74940;HTU21D;63505;45.226;37.908;2023-09-18T21:24:04;16.03;50.56
74940;HTU21D;63505;45.226;37.908;2023-09-18T21:26:31;16.01;50.56
74940;HTU21D;63505;45.226;37.908;2023-09-18T21:28:56;15.96;50.61
74940;HTU21D;63505;45.226;37.908;2023-09-18T21:31:22;15.93;50.63
74940;HTU21D;63505;45.226;37.908;2023-09-18T21:33:48;15.88;50.72
74940;HTU21D;63505;45.226;37.908;2023-09-18T21:36:20;15.84;50.79
74940;HTU21D;63505;45.226;37.908;2023-09-18T21:38:47;15.83;50.84
74940;HTU21D;63505;45.226;37.908;2023-09-18T21:41:15;15.80;50.90
74940;HTU21D;63505;45.226;37.908;2023-09-18T21:43:43;15.77;50.96
74940;HTU21D;63505;45.226;37.908;2023-09-18T21:46:09;15.75;51.08
74940;HTU21D;63505;45.226;37.908;2023-09-18T21:48:35;15.75;51.10
74940;HTU21D;63505;45.226;37.908;2023-09-18T21:51:02;15.75;51.13
74940;HTU21D;63505;45.226;37.908;2023-09-18T21:53:29;15.76;51.14
74940;HTU21D;63505;45.226;37.908;2023-09-18T21:55:59;15.75;51.21
74940;HTU21D;63505;45.226;37.908;2023-09-18T21:58:25;15.73;51.24
74940;HTU21D;63505;45.226;37.908;2023-09-18T22:00:58;15.70;51.30
74940;HTU21D;63505;45.226;37.908;2023-09-18T22:03:25;15.67;51.32
74940;HTU21D;63505;45.226;37.908;2023-09-18T22:05:52;15.63;51.39
74940;HTU21D;63505;45.226;37.908;2023-09-18T22:08:18;15.59;51.43
74940;HTU21D;63505;45.226;37.908;2023-09-18T22:10:45;15.57;51.51
74940;HTU21D;63505;45.226;37.908;2023-09-18T22:13:11;15.56;51.53
74940;HTU21D;63505;45.226;37.908;2023-09-18T22:15:37;15.54;51.62
74940;HTU21D;63505;45.226;37.908;2023-09-18T22:18:04;15.55;51.62
74940;HTU21D;63505;45.226;37.908;2023-09-18T22:20:30;15.55;51.58
74940;HTU21D;63505;45.226;37.908;2023-09-18T22:22:58;15.54;51.59
74940;HTU21D;63505;45.226;37.908;2023-09-18T22:25:29;15.53;51.67
74940;HTU21D;63505;45.226;37.908;2023-09-18T22:27:55;15.51;51.71
74940;HTU21D;63505;45.226;37.908;2023-09-18T22:30:21;15.48;51.76
74940;HTU21D;63505;45.226;37.908;2023-09-18T22:32:47;15.44;51.87
74940;HTU21D;63505;45.226;37.908;2023-09-18T22:35:13;15.44;51.93
74940;HTU21D;63505;45.226;37.908;2023-09-18T22:37:39;15.39;52.05
74940;HTU21D;63505;45.226;37.908;2023-09-18T22:54:55;15.36;52.49
74940;HTU21D;63505;45.226;37.908;2023-09-18T22:57:23;15.36;52.54
74940;HTU21D;63505;45.226;37.908;2023-09-18T22:59:52;15.37;52.57
74940;HTU21D;63505;45.226;37.908;2023-09-18T23:02:21;15.37;52.64
74940;HTU21D;63505;45.226;37.908;2023-09-18T23:04:47;15.36;52.65
74940;HTU21D;63505;45.226;37.908;2023-09-18T23:07:14;15.34;52.70
74940;HTU21D;63505;45.226;37.908;2023-09-18T23:09:44;15.31;52.78
74940;HTU21D;63505;45.226;37.908;2023-09-18T23:12:14;15.28;52.87
74940;HTU21D;63505;45.226;37.908;2023-09-18T23:14:40;15.26;52.92
74940;HTU21D;63505;45.226;37.908;2023-09-18T23:17:09;15.23;52.98
74940;HTU21D;63505;45.226;37.908;2023-09-18T23:19:38;15.17;53.07
74940;HTU21D;63505;45.226;37.908;2023-09-18T23:22:05;15.14;53.14
74940;HTU21D;63505;45.226;37.908;2023-09-18T23:24:32;15.10;53.22
74940;HTU21D;63505;45.226;37.908;2023-09-18T23:26:58;15.08;53.24
74940;HTU21D;63505;45.226;37.908;2023-09-18T23:29:28;15.02;53.33
74940;HTU21D;63505;45.226;37.908;2023-09-18T23:31:58;14.99;53.37
74940;HTU21D;63505;45.226;37.908;2023-09-18T23:34:25;14.93;53.48
74940;HTU21D;63505;45.226;37.908;2023-09-18T23:36:51;14.92;53.53
74940;HTU21D;63505;45.226;37.908;2023-09-18T23:39:24;14.88;53.59
74940;HTU21D;63505;45.226;37.908;2023-09-18T23:41:49;14.86;53.57
74940;HTU21D;63505;45.226;37.908;2023-09-18T23:44:16;14.83;53.65
74940;HTU21D;63505;45.226;37.908;2023-09-18T23:46:44;14.82;53.71
74940;HTU21D;63505;45.226;37.908;2023-09-18T23:49:14;14.79;53.75
74940;HTU21D;63505;45.226;37.908;2023-09-18T23:51:43;14.72;53.89
74940;HTU21D;63505;45.226;37.908;2023-09-18T23:54:10;14.71;53.98
74940;HTU21D;63505;45.226;37.908;2023-09-18T23:56:36;14.70;54.04
74940;HTU21D;63505;45.226;37.908;2023-09-18T23:59:02;14.68;54.16
